TimeCST,TemperatureF,Dew PointF,Humidity,Sea Level PressureIn,VisibilityMPH,Wind Direction,Wind SpeedMPH,Gust SpeedMPH,PrecipitationIn,Events,Conditions,WindDirDegrees,DateUTC
12:56 AM,35.1,32.0,89,30.07,10.0,NNW,3.5,-,N/A,,Clear,330,2013-02-15 06:56:00
1:56 AM,34.0,32.0,92,30.07,10.0,Calm,Calm,-,N/A,,Clear,0,2013-02-15 07:56:00
2:56 AM,33.1,30.9,92,30.06,10.0,Calm,Calm,-,N/A,,Clear,0,2013-02-15 08:56:00
3:56 AM,33.1,30.9,92,30.07,10.0,Calm,Calm,-,N/A,,Clear,0,2013-02-15 09:56:00
4:56 AM,34.0,30.9,89,30.09,10.0,Calm,Calm,-,N/A,,Clear,0,2013-02-15 10:56:00
5:56 AM,34.0,30.9,89,30.10,10.0,Calm,Calm,-,N/A,,Clear,0,2013-02-15 11:56:00
6:56 AM,34.0,30.9,89,30.11,10.0,NNW,3.5,-,N/A,,Clear,340,2013-02-15 12:56:00
7:56 AM,44.1,39.9,85,30.13,10.0,Calm,Calm,-,N/A,,Clear,0,2013-02-15 13:56:00
8:56 AM,54.0,41.0,62,30.14,10.0,North,4.6,-,N/A,,Clear,10,2013-02-15 14:56:00
9:56 AM,57.9,39.9,51,30.14,10.0,North,6.9,-,N/A,,Clear,350,2013-02-15 15:56:00
10:56 AM,62.1,37.0,39,30.11,10.0,NE,8.1,-,N/A,,Clear,40,2013-02-15 16:56:00
11:56 AM,63.0,36.0,37,30.09,10.0,Variable,3.5,-,N/A,,Clear,0,2013-02-15 17:56:00
12:56 PM,64.9,36.0,34,30.04,10.0,North,9.2,-,N/A,,Clear,350,2013-02-15 18:56:00
1:56 PM,64.0,33.1,31,30.03,10.0,Variable,3.5,-,N/A,,Clear,0,2013-02-15 19:56:00
2:56 PM,66.0,33.1,29,30.01,10.0,North,9.2,-,N/A,,Clear,350,2013-02-15 20:56:00
3:56 PM,64.9,33.1,31,30.01,10.0,North,4.6,-,N/A,,Clear,350,2013-02-15 21:56:00
4:56 PM,61.0,36.0,39,30.01,10.0,NW,3.5,-,N/A,,Clear,320,2013-02-15 22:56:00
5:56 PM,57.0,37.9,49,30.01,10.0,Calm,Calm,-,N/A,,Clear,0,2013-02-15 23:56:00
6:56 PM,53.1,39.0,59,30.02,10.0,WSW,3.5,-,N/A,,Clear,250,2013-02-16 00:56:00
7:56 PM,52.0,42.1,69,30.04,10.0,Calm,Calm,-,N/A,,Clear,0,2013-02-16 01:56:00
8:56 PM,51.1,42.1,71,30.05,10.0,WNW,3.5,-,N/A,,Clear,290,2013-02-16 02:56:00
9:56 PM,50.0,41.0,71,30.04,10.0,WNW,3.5,-,N/A,,Clear,300,2013-02-16 03:56:00
10:56 PM,48.9,41.0,74,30.04,10.0,WNW,4.6,-,N/A,,Clear,300,2013-02-16 04:56:00
11:56 PM,48.0,41.0,77,30.04,10.0,NW,8.1,-,N/A,,Clear,310,2013-02-16 05:56:00